Clearfield, Pennsylvania
Current Conditions -  °F | °C
As of 10:54 PM on Tuesday 27 Jan 2015 (Local Time) from KFIG Reporting Station
Clear Clear  
Wind Chill:   Ceiling: Unl
Heat Index: 11°   Visibility: 10mi
Dew Point:   Wind: 7mph
Humidity: 70%   Direction: 320°NW
Pressure: 30.02"   Gusts: NA
Location:  41.02°N, 78.44°W
Report Text: KFIG 280354Z AUTO 32006KT 10SM CLR M12/M16 A3002 RMK AO2 SLP194 T11171161
Loading
Personal Weather Stations






























Interactive Weather Map New forecast layout! Learn more

10-Day Weather Forecast

Advertisements
Track Severe Weather on mobile